高雄國際航空站 - 塔台/地面席

METAR RCKH 191800Z 08004KT 9999 FEW016 SCT035 26/23 Q1009 NOSIG RMK A2981=

站台狀態:Offline
最後更新:2024-04-20 03:00:02